Airfield :
LOGIN :

Register | Disclaimer

   EN    FR    IT 

 










Legend :    VFR   Marginal VFR   IFR   Intensive IFR   Very Intensive IFR
Visi :
Ceiling :
>= 8 km
>= 3000ft
5 to 8 km
1000 to 3000 ft
1500m to 5 km
500 to 1000 ft
800 to 1500m
200 to 500 ft
< 800m
< 200 ft
Symbols :   Thunderstorms  Fog  Heavy snow  Heavy precipitations  Wind > 20 kt
SIGMETs :     Misc.  Thunderstorms  Icing  Turbulence  Mountain Waves  Volcanic Ashes







- Airport Elevation : 636 ft


LPBJ - Beja Air Base

CURRENT METAR :
  • 141800Z 27007KT 9999 FEW004 SCT012 13/13 Q1023

EXPIRED METARs :
  • 141700Z 29007KT 9999 VCSH FEW004 SCT012 14/13 Q1023 REDZ
  • 141627Z 28010KT 7000 -DZ FEW006 BKN015 BKN022 14/13 Q1023 REDZ
  • 141600Z 28012KT 4000 DZ BR SCT006 BKN012 BKN022 14/14 Q1023
  • 141530Z 29011KT 4500 -DZ BR SCT006 BKN012 BKN018 14/14 Q1023

TAF TAF LPBJ
Valid from the 14 at 18:00 until the 15 at 18:00 UTC


141703Z 1418/1518 29010KT 9999 SCT009 BKN025
TEMPO 1418/1421 2000 -DZ BR BKN004 BKN014
PROB40 1421/1509 0400 FG BKN002
PROB40
TEMPO 1509/1516 2000 -DZRA BR BKN006
BECMG 1516/1518 35008KT FEW020
No reported NOTAMs for that airfield.



MET'MAP, your aeronautical weather chart ! - Copyright ORBIFLY December 2007 - Disclaimer

ORBIFLY MET'MAP TEAM :

Programming & Development : Alexandra Zaïnal
Concept & Development : Baudouin d'Aumeries
Co-Development & Prog : Marc-Olivier Méhu
Technical & hardware support : Manuel Goepfert

Contact : metmap@orbifly.com




SOURCES & CREDITS :

   NOAA